createdAt,value
2017-07-06T00:00:12.426Z,18.44
2017-07-06T00:02:44.830Z,18.40
2017-07-06T00:05:17.241Z,18.34
2017-07-06T00:07:49.821Z,18.24
2017-07-06T00:10:22.307Z,18.17
2017-07-06T00:12:54.749Z,18.09
2017-07-06T00:15:27.193Z,17.99
2017-07-06T00:17:59.556Z,17.93
2017-07-06T00:20:31.898Z,17.94
2017-07-06T00:23:04.241Z,17.93
2017-07-06T00:25:36.770Z,17.93
2017-07-06T00:28:09.101Z,17.93
2017-07-06T00:30:41.458Z,17.86
2017-07-06T00:33:13.830Z,17.84
2017-07-06T00:35:47.187Z,17.77
2017-07-06T00:38:19.617Z,17.75
2017-07-06T00:40:52.809Z,17.74
2017-07-06T00:43:25.228Z,17.74
2017-07-06T00:45:57.602Z,17.71
2017-07-06T00:48:30.089Z,17.64
2017-07-06T00:51:02.919Z,17.59
2017-07-06T00:53:35.089Z,17.53
2017-07-06T00:56:07.544Z,17.47
2017-07-06T00:58:39.936Z,17.41
2017-07-06T01:01:12.415Z,17.35
2017-07-06T01:03:44.909Z,17.30
2017-07-06T01:06:17.162Z,17.26
2017-07-06T01:08:49.597Z,17.19
2017-07-06T01:11:22.237Z,17.20
2017-07-06T01:13:54.397Z,17.14
2017-07-06T01:16:27.853Z,17.03
2017-07-06T01:19:00.295Z,16.99
2017-07-06T01:21:32.564Z,16.94
2017-07-06T01:24:05.547Z,16.85
2017-07-06T01:26:37.681Z,16.86
2017-07-06T01:29:09.901Z,16.84
2017-07-06T01:31:42.281Z,16.82
2017-07-06T01:34:14.585Z,16.75
2017-07-06T01:36:46.924Z,16.69
2017-07-06T01:39:19.235Z,16.59
2017-07-06T01:41:51.530Z,16.58
2017-07-06T01:44:23.826Z,16.54
2017-07-06T01:46:56.155Z,16.49
2017-07-06T01:49:28.553Z,16.45
2017-07-06T01:52:01.013Z,16.41
2017-07-06T01:54:33.376Z,16.38
2017-07-06T01:57:05.829Z,16.25
2017-07-06T01:59:38.142Z,16.24
2017-07-06T02:02:10.605Z,16.19
2017-07-06T02:04:42.987Z,16.13
2017-07-06T02:07:15.449Z,16.07
2017-07-06T02:09:47.958Z,16.06
2017-07-06T02:12:20.496Z,15.97
2017-07-06T02:14:53.309Z,15.98
2017-07-06T02:17:26.980Z,15.95
2017-07-06T02:20:00.388Z,15.91
2017-07-06T02:22:39.704Z,15.87
2017-07-06T02:25:12.301Z,15.81
2017-07-06T02:27:59.661Z,15.78
2017-07-06T02:30:39.453Z,15.76
2017-07-06T02:33:12.065Z,15.73
2017-07-06T02:35:44.583Z,15.67
2017-07-06T02:38:17.431Z,15.68
2017-07-06T02:40:49.742Z,15.68
2017-07-06T02:43:23.023Z,15.67
2017-07-06T02:45:55.356Z,15.61
2017-07-06T02:48:27.716Z,15.56
2017-07-06T02:51:00.165Z,15.54
2017-07-06T02:53:32.617Z,15.54
2017-07-06T02:56:05.055Z,15.53
2017-07-06T02:58:37.520Z,15.51
2017-07-06T03:01:09.882Z,15.47
2017-07-06T03:03:42.284Z,15.48
2017-07-06T03:06:14.647Z,15.51
2017-07-06T03:08:47.078Z,15.47
2017-07-06T03:11:19.400Z,15.38
2017-07-06T03:13:51.793Z,15.35
2017-07-06T03:16:24.444Z,15.29
2017-07-06T03:18:56.993Z,15.31
2017-07-06T03:21:29.414Z,15.26
2017-07-06T03:24:01.796Z,15.29
2017-07-06T03:26:34.409Z,15.30
2017-07-06T03:29:06.555Z,15.33
2017-07-06T03:31:39.057Z,15.38
2017-07-06T03:34:11.962Z,15.45
2017-07-06T03:36:43.717Z,15.51
2017-07-06T03:39:16.103Z,15.56
2017-07-06T03:41:49.101Z,15.65
2017-07-06T03:44:20.949Z,15.72
2017-07-06T03:46:53.553Z,15.83
2017-07-06T03:49:25.744Z,15.88
2017-07-06T03:51:59.025Z,15.97
2017-07-06T03:54:31.580Z,16.02
2017-07-06T03:57:03.956Z,16.08
2017-07-06T03:59:36.437Z,16.12
2017-07-06T04:02:08.909Z,16.17
2017-07-06T04:04:42.358Z,16.21
2017-07-06T04:07:14.823Z,16.20
2017-07-06T04:09:47.176Z,16.16
2017-07-06T04:12:19.634Z,16.17
2017-07-06T04:14:52.101Z,16.28
2017-07-06T04:17:24.486Z,16.20
2017-07-06T04:19:56.885Z,16.21
2017-07-06T04:22:29.216Z,16.16
2017-07-06T04:25:01.617Z,16.15
2017-07-06T04:27:33.998Z,16.22
2017-07-06T04:30:06.360Z,16.23
2017-07-06T04:32:38.744Z,16.31
2017-07-06T04:35:11.141Z,16.37
2017-07-06T04:37:43.531Z,16.60
2017-07-06T04:40:15.977Z,17.18
2017-07-06T04:42:48.508Z,17.88
2017-07-06T04:45:20.928Z,18.55
2017-07-06T04:47:53.270Z,18.77
2017-07-06T04:50:26.766Z,18.94
2017-07-06T04:52:59.152Z,19.29
2017-07-06T04:55:31.708Z,19.65
2017-07-06T05:00:36.625Z,20.55
2017-07-06T05:03:08.945Z,21.17
2017-07-06T05:05:41.500Z,21.53
2017-07-06T05:08:14.101Z,22.11
2017-07-06T05:10:47.361Z,22.37
2017-07-06T05:13:19.702Z,22.49
2017-07-06T05:15:52.250Z,22.80
2017-07-06T05:18:24.407Z,22.85
2017-07-06T05:20:56.784Z,22.82
2017-07-06T05:23:29.189Z,22.89
2017-07-06T05:26:01.613Z,23.01
2017-07-06T05:28:34.124Z,23.23
2017-07-06T05:31:06.581Z,23.86
2017-07-06T05:33:39.032Z,24.36
2017-07-06T05:36:11.312Z,24.50
2017-07-06T05:38:43.923Z,24.88
2017-07-06T05:41:16.098Z,24.92
2017-07-06T05:43:48.358Z,25.30
2017-07-06T05:46:20.747Z,25.76
2017-07-06T05:48:53.234Z,26.03
2017-07-06T05:51:27.596Z,26.23
2017-07-06T05:54:00.005Z,25.91
2017-07-06T05:56:32.398Z,24.40
2017-07-06T05:59:04.741Z,23.50
2017-07-06T06:01:37.081Z,23.61
2017-07-06T06:04:09.412Z,23.83
2017-07-06T06:06:42.773Z,24.30
2017-07-06T06:09:15.164Z,24.81
2017-07-06T06:11:47.706Z,25.39
2017-07-06T06:14:20.053Z,25.97
2017-07-06T06:16:52.374Z,26.35
2017-07-06T06:19:25.602Z,25.71
2017-07-06T06:21:58.133Z,25.38
2017-07-06T06:24:30.461Z,25.40
2017-07-06T06:27:02.909Z,25.47
2017-07-06T06:29:35.265Z,25.72
2017-07-06T06:32:09.269Z,25.89
2017-07-06T06:34:42.005Z,26.39
2017-07-06T06:37:14.183Z,26.03
2017-07-06T06:39:46.529Z,25.67
2017-07-06T06:42:19.298Z,26.04
2017-07-06T06:44:51.345Z,25.90
2017-07-06T06:47:23.669Z,26.03
2017-07-06T06:49:56.236Z,26.67
2017-07-06T06:52:28.518Z,27.43
2017-07-06T06:55:00.803Z,28.02
2017-07-06T06:57:33.233Z,28.38
2017-07-06T07:00:05.601Z,28.10
2017-07-06T07:02:37.979Z,28.09
2017-07-06T07:05:10.532Z,28.54
2017-07-06T07:07:42.977Z,29.47
2017-07-06T07:10:15.386Z,30.19
2017-07-06T07:12:47.700Z,30.41
2017-07-06T07:15:19.852Z,30.36
2017-07-06T07:17:52.324Z,30.30
2017-07-06T07:20:24.743Z,30.72
2017-07-06T07:22:57.216Z,31.54
2017-07-06T07:25:29.605Z,31.82
2017-07-06T07:28:02.022Z,31.41
2017-07-06T07:30:34.341Z,31.09
2017-07-06T07:33:06.690Z,31.26
2017-07-06T07:35:39.140Z,31.45
2017-07-06T07:38:12.535Z,31.60
2017-07-06T07:40:45.017Z,32.43
2017-07-06T07:43:17.515Z,32.82
2017-07-06T07:45:49.907Z,32.79
2017-07-06T07:48:23.721Z,33.11
2017-07-06T07:50:55.793Z,33.56
2017-07-06T07:53:29.237Z,33.01
2017-07-06T07:56:01.619Z,32.74
2017-07-06T07:58:34.161Z,33.12
2017-07-06T08:01:06.506Z,33.86
2017-07-06T08:03:39.065Z,34.56
2017-07-06T08:06:11.496Z,34.73
2017-07-06T08:08:43.944Z,35.01
2017-07-06T08:11:16.396Z,35.29
2017-07-06T08:13:48.862Z,35.64
2017-07-06T08:16:21.120Z,35.69
2017-07-06T08:18:53.626Z,35.77
2017-07-06T08:21:26.085Z,36.17
2017-07-06T08:23:58.887Z,35.90
2017-07-06T08:26:31.325Z,35.36
2017-07-06T08:29:04.473Z,35.29
2017-07-06T08:31:36.998Z,35.57
2017-07-06T08:34:09.388Z,35.36
2017-07-06T08:36:41.845Z,34.72
2017-07-06T08:39:14.270Z,35.06
2017-07-06T08:41:47.037Z,35.55
2017-07-06T08:44:18.810Z,36.22
2017-07-06T08:46:58.130Z,36.75
2017-07-06T08:49:30.811Z,36.86
2017-07-06T08:52:03.152Z,36.60
2017-07-06T08:54:35.665Z,36.07
2017-07-06T08:57:07.934Z,35.93
2017-07-06T08:59:40.480Z,36.46
2017-07-06T09:02:12.761Z,36.54
2017-07-06T09:04:45.224Z,36.21
2017-07-06T09:07:17.682Z,36.43
2017-07-06T09:09:51.196Z,36.10
2017-07-06T09:12:23.660Z,36.43
2017-07-06T09:14:55.965Z,36.44
2017-07-06T09:17:29.101Z,36.58
2017-07-06T09:20:02.012Z,36.85
2017-07-06T09:22:34.281Z,37.28
2017-07-06T09:25:06.656Z,37.12
2017-07-06T09:27:39.165Z,36.23
2017-07-06T09:30:11.606Z,35.94
2017-07-06T09:32:43.908Z,36.13
2017-07-06T09:35:16.364Z,35.83
2017-07-06T09:37:48.717Z,35.94
2017-07-06T09:40:21.279Z,35.66
2017-07-06T09:42:53.672Z,34.40
2017-07-06T09:45:26.066Z,34.08
2017-07-06T09:47:58.414Z,34.53
2017-07-06T09:50:31.252Z,35.47
2017-07-06T09:53:03.377Z,35.87
2017-07-06T09:55:36.005Z,35.25
2017-07-06T09:58:08.333Z,34.44
2017-07-06T10:00:40.697Z,33.61
2017-07-06T10:03:13.107Z,32.51
2017-07-06T10:05:45.634Z,31.60
2017-07-06T10:08:17.976Z,31.61
2017-07-06T10:10:50.941Z,32.38
2017-07-06T10:13:23.664Z,32.92
2017-07-06T10:15:56.069Z,33.56
2017-07-06T10:18:28.531Z,33.33
2017-07-06T10:21:00.834Z,32.73
2017-07-06T10:23:34.297Z,32.38
2017-07-06T10:26:06.793Z,31.18
2017-07-06T10:28:39.170Z,31.11
2017-07-06T10:31:11.656Z,31.38
2017-07-06T10:33:44.103Z,31.48
2017-07-06T10:36:16.510Z,30.94
2017-07-06T10:38:48.893Z,30.25
2017-07-06T10:41:21.317Z,30.12
2017-07-06T10:43:53.724Z,30.15
2017-07-06T10:46:26.122Z,30.14
2017-07-06T10:48:58.565Z,30.10
2017-07-06T10:51:30.939Z,30.70
2017-07-06T10:54:03.396Z,30.91
2017-07-06T10:56:35.909Z,30.83
2017-07-06T10:59:08.374Z,30.93
2017-07-06T11:01:40.832Z,31.28
2017-07-06T11:04:13.205Z,31.81
2017-07-06T11:06:45.730Z,31.90
2017-07-06T11:09:18.057Z,31.81
2017-07-06T11:11:50.711Z,31.28
2017-07-06T11:14:22.872Z,31.10
2017-07-06T11:16:55.408Z,31.87
2017-07-06T11:19:27.761Z,32.75
2017-07-06T11:22:00.252Z,33.30
2017-07-06T11:24:32.694Z,33.49
2017-07-06T11:27:06.149Z,34.16
2017-07-06T11:29:38.493Z,34.78
2017-07-06T11:32:11.852Z,35.05
2017-07-06T11:34:44.473Z,35.65
2017-07-06T11:37:16.730Z,35.01
2017-07-06T11:39:49.146Z,34.42
2017-07-06T11:42:21.569Z,33.84
2017-07-06T11:44:54.125Z,32.99
2017-07-06T11:47:27.333Z,32.97
2017-07-06T11:49:59.639Z,33.07
2017-07-06T11:52:32.116Z,33.47
2017-07-06T11:55:05.513Z,34.19
2017-07-06T11:57:37.996Z,34.66
2017-07-06T12:00:10.541Z,35.38
2017-07-06T12:02:43.081Z,36.28
2017-07-06T12:05:15.441Z,35.95
2017-07-06T12:07:47.882Z,35.25
2017-07-06T12:10:20.244Z,35.15
2017-07-06T12:12:53.565Z,35.57
2017-07-06T12:15:26.034Z,35.22
2017-07-06T12:17:58.472Z,34.78
2017-07-06T12:20:30.857Z,34.96
2017-07-06T12:23:03.340Z,35.32
2017-07-06T12:25:35.926Z,35.77
2017-07-06T12:28:08.363Z,36.01
2017-07-06T12:30:40.784Z,35.10
2017-07-06T12:33:14.104Z,34.04
2017-07-06T12:35:46.549Z,33.21
2017-07-06T12:38:19.069Z,33.01
2017-07-06T12:40:51.397Z,32.70
2017-07-06T12:43:23.890Z,33.04
2017-07-06T12:45:56.332Z,33.15
2017-07-06T12:48:29.672Z,32.81
2017-07-06T12:51:02.012Z,33.06
2017-07-06T12:53:34.405Z,32.87
2017-07-06T12:56:06.860Z,32.15
2017-07-06T12:58:39.525Z,31.71
2017-07-06T13:01:11.789Z,32.18
2017-07-06T13:03:44.139Z,32.84
2017-07-06T13:06:16.522Z,33.41
2017-07-06T13:08:50.062Z,33.50
2017-07-06T13:11:23.565Z,32.58
2017-07-06T13:13:55.953Z,31.93
2017-07-06T13:16:28.401Z,31.94
2017-07-06T13:19:00.901Z,31.97
2017-07-06T13:21:33.253Z,31.82
2017-07-06T13:24:05.598Z,31.87
2017-07-06T13:26:37.888Z,32.17
2017-07-06T13:29:11.264Z,32.76
2017-07-06T13:31:43.573Z,33.39
2017-07-06T13:34:16.012Z,33.46
2017-07-06T13:36:48.457Z,33.30
2017-07-06T13:39:20.945Z,32.41
2017-07-06T13:41:56.190Z,31.83
2017-07-06T13:44:28.834Z,31.43
2017-07-06T13:47:02.153Z,31.33
2017-07-06T13:49:34.743Z,31.36
2017-07-06T13:52:07.080Z,31.48
2017-07-06T13:54:39.462Z,31.29
2017-07-06T13:57:11.828Z,31.46
2017-07-06T13:59:44.225Z,31.57
2017-07-06T14:02:16.553Z,31.28
2017-07-06T14:04:49.031Z,31.40
2017-07-06T14:07:21.480Z,31.99
2017-07-06T14:09:53.940Z,31.78
2017-07-06T14:12:26.303Z,31.38
2017-07-06T14:14:58.756Z,31.16
2017-07-06T14:17:31.211Z,31.32
2017-07-06T14:20:03.783Z,31.45
2017-07-06T14:22:36.151Z,31.32
2017-07-06T14:25:08.345Z,31.20
2017-07-06T14:27:40.809Z,31.34
2017-07-06T14:30:13.213Z,31.12
2017-07-06T14:32:45.624Z,31.13
2017-07-06T14:35:18.013Z,30.91
2017-07-06T14:37:50.203Z,30.89
2017-07-06T14:40:22.680Z,30.76
2017-07-06T14:42:55.081Z,30.56
2017-07-06T14:45:27.649Z,30.44
2017-07-06T14:48:00.547Z,30.31
2017-07-06T14:50:32.854Z,30.26
2017-07-06T14:53:04.857Z,30.30
2017-07-06T14:55:37.149Z,30.04
2017-07-06T14:58:09.499Z,29.73
2017-07-06T15:00:41.680Z,29.72
2017-07-06T15:03:14.015Z,29.93
2017-07-06T15:05:46.545Z,30.28
2017-07-06T15:08:19.189Z,30.44
2017-07-06T15:10:51.474Z,30.59
2017-07-06T15:13:23.869Z,30.72
2017-07-06T15:15:56.821Z,30.84
2017-07-06T15:18:29.298Z,30.83
2017-07-06T15:21:01.229Z,30.66
2017-07-06T15:23:33.588Z,30.48
2017-07-06T15:26:06.066Z,30.57
2017-07-06T15:28:38.804Z,30.54
2017-07-06T15:31:10.940Z,30.67
2017-07-06T15:33:43.232Z,30.58
2017-07-06T15:36:15.643Z,30.47
2017-07-06T15:38:48.106Z,30.41
2017-07-06T15:41:20.695Z,30.37
2017-07-06T15:43:53.128Z,30.43
2017-07-06T15:46:25.674Z,30.46
2017-07-06T15:48:58.105Z,30.42
2017-07-06T15:51:30.574Z,30.50
2017-07-06T15:54:03.145Z,30.62
2017-07-06T15:56:35.585Z,30.58
2017-07-06T15:59:08.729Z,30.57
2017-07-06T16:01:41.416Z,30.45
2017-07-06T16:04:13.821Z,30.45
2017-07-06T16:06:46.249Z,30.32
2017-07-06T16:09:18.596Z,30.29
2017-07-06T16:11:50.892Z,30.37
2017-07-06T16:14:23.373Z,30.35
2017-07-06T16:16:56.133Z,30.11
2017-07-06T16:19:28.101Z,29.86
2017-07-06T16:22:00.516Z,29.69
2017-07-06T16:24:32.969Z,29.62
2017-07-06T16:27:05.626Z,29.82
2017-07-06T16:29:37.745Z,29.91
2017-07-06T16:32:10.007Z,29.95
2017-07-06T16:34:42.442Z,29.95
2017-07-06T16:37:15.121Z,29.96
2017-07-06T16:39:47.012Z,30.01
2017-07-06T16:42:19.477Z,30.04
2017-07-06T16:44:51.860Z,29.97
2017-07-06T16:47:24.245Z,30.02
2017-07-06T16:49:56.628Z,29.86
2017-07-06T16:52:30.059Z,29.82
2017-07-06T16:55:02.401Z,29.80
2017-07-06T16:57:35.536Z,29.58
2017-07-06T17:00:08.226Z,29.57
2017-07-06T17:02:40.741Z,29.63
2017-07-06T17:05:13.233Z,29.76
2017-07-06T17:07:45.572Z,29.89
2017-07-06T17:10:18.038Z,29.72
2017-07-06T17:12:50.422Z,29.61
2017-07-06T17:15:30.821Z,29.69
2017-07-06T17:18:03.412Z,29.60
2017-07-06T17:20:35.821Z,29.64
2017-07-06T17:23:08.308Z,29.48
2017-07-06T17:25:40.781Z,29.46
2017-07-06T17:28:13.185Z,29.40
2017-07-06T17:30:45.712Z,29.09
2017-07-06T17:33:17.843Z,28.65
2017-07-06T17:35:50.146Z,28.39
2017-07-06T17:38:24.013Z,28.50
2017-07-06T17:40:56.041Z,28.52
2017-07-06T17:43:28.866Z,28.56
2017-07-06T17:46:01.738Z,28.39
2017-07-06T17:48:34.282Z,28.09
2017-07-06T17:51:06.549Z,27.75
2017-07-06T17:53:39.004Z,27.51
2017-07-06T17:56:11.420Z,27.31
2017-07-06T17:58:43.785Z,27.22
2017-07-06T18:01:16.161Z,27.18
2017-07-06T18:03:48.601Z,27.18
2017-07-06T18:06:21.193Z,27.11
2017-07-06T18:08:53.766Z,27.11
2017-07-06T18:11:26.257Z,27.03
2017-07-06T18:13:58.559Z,26.99
2017-07-06T18:16:30.987Z,26.95
2017-07-06T18:19:03.493Z,26.99
2017-07-06T18:21:35.873Z,27.04
2017-07-06T18:24:08.600Z,27.01
2017-07-06T18:26:40.688Z,26.82
2017-07-06T18:29:13.311Z,26.67
2017-07-06T18:31:46.632Z,26.64
2017-07-06T18:34:19.032Z,26.65
2017-07-06T18:36:51.260Z,26.63
2017-07-06T18:39:23.749Z,26.49
2017-07-06T18:41:55.981Z,26.44
2017-07-06T18:44:29.294Z,26.39
2017-07-06T18:47:01.480Z,26.30
2017-07-06T18:49:33.917Z,26.19
2017-07-06T18:52:06.523Z,25.99
2017-07-06T18:54:39.869Z,25.83
2017-07-06T18:57:11.961Z,25.83
2017-07-06T18:59:44.716Z,25.84
2017-07-06T19:02:16.797Z,25.83
2017-07-06T19:04:49.283Z,25.84
2017-07-06T19:07:21.749Z,25.87
2017-07-06T19:09:54.486Z,25.89
2017-07-06T19:12:26.489Z,25.80
2017-07-06T19:14:58.873Z,25.64
2017-07-06T19:17:31.177Z,25.48
2017-07-06T19:20:05.365Z,25.35
2017-07-06T19:22:37.968Z,25.30
2017-07-06T19:25:10.294Z,25.23
2017-07-06T19:27:42.783Z,25.26
2017-07-06T19:30:15.069Z,25.29
2017-07-06T19:32:47.410Z,25.34
2017-07-06T19:35:19.816Z,25.32
2017-07-06T19:37:52.371Z,25.27
2017-07-06T19:40:25.845Z,25.19
2017-07-06T19:42:58.213Z,25.12
2017-07-06T19:45:30.770Z,25.05
2017-07-06T19:48:03.241Z,24.91
2017-07-06T19:50:36.541Z,24.85
2017-07-06T19:53:08.977Z,24.72
2017-07-06T19:55:41.723Z,24.68
2017-07-06T19:58:14.632Z,24.60
2017-07-06T20:00:47.150Z,24.56
2017-07-06T20:03:19.518Z,24.50
2017-07-06T20:05:52.775Z,24.49
2017-07-06T20:08:25.297Z,24.46
2017-07-06T20:10:57.592Z,24.38
2017-07-06T20:13:30.394Z,24.32
2017-07-06T20:16:02.353Z,24.32
2017-07-06T20:18:34.746Z,24.30
2017-07-06T20:21:07.191Z,24.19
2017-07-06T20:23:39.581Z,24.14
2017-07-06T20:26:12.030Z,24.05
2017-07-06T20:28:44.445Z,23.98
2017-07-06T20:31:16.848Z,23.94
2017-07-06T20:33:49.072Z,23.92
2017-07-06T20:36:21.488Z,23.85
2017-07-06T20:38:53.833Z,23.79
2017-07-06T20:41:26.260Z,23.75
2017-07-06T20:43:58.690Z,23.67
2017-07-06T20:46:31.138Z,23.50
2017-07-06T20:49:03.525Z,23.46
2017-07-06T20:51:35.944Z,23.39
2017-07-06T20:54:08.408Z,23.21
2017-07-06T20:56:41.095Z,23.07
2017-07-06T20:59:13.232Z,22.96
2017-07-06T21:01:46.601Z,22.90
2017-07-06T21:04:18.960Z,22.84
2017-07-06T21:06:51.385Z,22.79
2017-07-06T21:09:23.851Z,22.81
2017-07-06T21:11:56.219Z,22.81
2017-07-06T21:14:28.700Z,22.76
2017-07-06T21:17:01.191Z,22.60
2017-07-06T21:19:33.576Z,22.58
2017-07-06T21:22:05.888Z,22.55
2017-07-06T21:24:38.215Z,22.49
2017-07-06T21:27:10.600Z,22.53
2017-07-06T21:29:43.073Z,22.33
2017-07-06T21:32:15.438Z,22.39
2017-07-06T21:34:47.803Z,22.44
2017-07-06T21:37:20.244Z,22.41
2017-07-06T21:39:52.590Z,22.27
2017-07-06T21:42:25.288Z,22.32
2017-07-06T21:44:57.387Z,22.35
2017-07-06T21:47:29.797Z,22.35
2017-07-06T21:50:02.285Z,22.32
2017-07-06T21:52:34.856Z,22.31
2017-07-06T21:55:07.168Z,22.23
2017-07-06T21:57:39.498Z,22.24
2017-07-06T22:00:11.770Z,22.23
2017-07-06T22:02:44.304Z,22.24
2017-07-06T22:05:16.837Z,22.17
2017-07-06T22:07:49.115Z,22.13
2017-07-06T22:10:23.187Z,22.08
2017-07-06T22:12:55.867Z,22.06
2017-07-06T22:15:28.121Z,22.01
2017-07-06T22:18:00.499Z,22.00
2017-07-06T22:20:32.969Z,21.98
2017-07-06T22:23:05.457Z,21.94
2017-07-06T22:25:37.803Z,21.90
2017-07-06T22:28:10.214Z,21.87
2017-07-06T22:30:42.606Z,21.79
2017-07-06T22:33:15.040Z,21.77
2017-07-06T22:35:47.373Z,21.77
2017-07-06T22:38:19.693Z,21.79
2017-07-06T22:40:52.590Z,21.78
2017-07-06T22:43:24.636Z,21.73
2017-07-06T22:45:56.949Z,21.73
2017-07-06T22:48:29.342Z,21.76
2017-07-06T22:51:01.740Z,21.75
2017-07-06T22:53:34.045Z,21.79
2017-07-06T22:56:06.593Z,21.78
2017-07-06T22:58:39.063Z,21.78
2017-07-06T23:01:11.469Z,21.80
2017-07-06T23:03:43.830Z,21.77
2017-07-06T23:06:16.180Z,21.75
2017-07-06T23:08:49.276Z,21.72
2017-07-06T23:11:21.159Z,21.70
2017-07-06T23:13:53.744Z,21.69
2017-07-06T23:16:26.101Z,21.74
2017-07-06T23:18:58.577Z,21.72
2017-07-06T23:21:31.314Z,21.70
2017-07-06T23:24:03.640Z,21.70
2017-07-06T23:26:35.604Z,21.62
2017-07-06T23:29:08.189Z,21.52
2017-07-06T23:31:40.713Z,21.45
2017-07-06T23:34:13.104Z,21.38
2017-07-06T23:36:45.567Z,21.28
2017-07-06T23:39:17.985Z,21.27
2017-07-06T23:41:50.433Z,21.27
2017-07-06T23:44:22.948Z,21.23
2017-07-06T23:46:55.390Z,21.12
2017-07-06T23:49:27.832Z,21.19
2017-07-06T23:52:00.249Z,21.19
2017-07-06T23:54:33.957Z,21.23
2017-07-06T23:57:06.138Z,21.18
2017-07-06T23:59:38.535Z,21.32
